Decoded Metar for URKA (ANAPA/VITIAZEVO in RUSSIA) (IATA:N/A) | Meteo·Mobile Aviation Weather
aviador You're here:

URKA Decoded Metar

ANAPA/VITIAZEVO in RUSSIA
Report Time2018-11-21 18:00:00
UTC Time2018-11-21 18:25:59
Flight Rules ifr IFR
Wind060° at 17 kt
W.Decomp.*RWY 04: 16.5 kt HW 4.1 kt RCW
W.Rank060° ranks 2
Current wind is above 060° avg. (10.4)
Visibility9000 m
Phenomena:Mist
Clouds:Broken 002 Hf
Overcast 007 Hf
Ceiling700 ft
Temp02°C (ISA -13)
Dew Point02°C (100% RH)
AAT-5.8°C
QNH1017 hPa
Density Alt-1,404 ft
Elevation174 ft
Report Wrong Elevation
Raw Report
URKA 211800Z 06009MPS 9000 OVC007 02/02 Q1017 R04/010070 TEMPO
06008G15MPS 2000 BR BKN002 RMK QFE759/1012=

Extra information for URKA:More info

Metar Taf Metar & Taf Last 4 Metars F.Rules Stats Wind Profile Meteogram Temp Stats Airport Information Weather charts Add Link Nearby VenuesMetar ALERT Operation Metar Decoded Social comments